Kailua Kona, Hawaii
Current Conditions -  °F | °C
As of 1:53 PM on Monday 22 Dec 2014 (Local Time) from PHKO Reporting Station
Clear Clear  
Wind Chill: 82°   Ceiling: Unl
Heat Index: 85°   Visibility: 10mi
Dew Point: 68°   Wind: 18mph
Humidity: 62%   Direction: 330°NNW
Pressure: 29.89"   Gusts: NA
Location:  19.73°N, 156.05°W
Report Text: PHKO 222353Z 33016KT 10SM CLR 28/20 A2989 RMK AO2 SLP123 T02780200 10294 20239 58028
Loading
Personal Weather Stations






























Interactive Weather Map New forecast layout! Learn more

10-Day Weather Forecast

Advertisements
Track Severe Weather on mobile